sensor_id;sensor_type;location;lat;lon;timestamp;P1;durP1;ratioP1;P2;durP2;ratioP2
20880;SDS011;10600;53.096;8.802;2022-10-31T00:00:26;84.40;;;47.28;;
20880;SDS011;10600;53.096;8.802;2022-10-31T00:01:28;86.35;;;48.95;;
20880;SDS011;10600;53.096;8.802;2022-10-31T00:02:31;76.68;;;47.28;;
20880;SDS011;10600;53.096;8.802;2022-10-31T00:03:32;77.30;;;45.38;;
20880;SDS011;10600;53.096;8.802;2022-10-31T00:04:32;81.75;;;47.47;;
20880;SDS011;10600;53.096;8.802;2022-10-31T00:05:33;75.60;;;47.85;;
20880;SDS011;10600;53.096;8.802;2022-10-31T00:06:33;81.65;;;47.03;;
20880;SDS011;10600;53.096;8.802;2022-10-31T00:07:34;87.65;;;50.08;;
20880;SDS011;10600;53.096;8.802;2022-10-31T00:08:35;82.43;;;50.15;;
20880;SDS011;10600;53.096;8.802;2022-10-31T00:09:35;82.57;;;49.72;;
20880;SDS011;10600;53.096;8.802;2022-10-31T00:10:40;87.32;;;50.70;;
20880;SDS011;10600;53.096;8.802;2022-10-31T00:11:41;82.28;;;49.72;;
20880;SDS011;10600;53.096;8.802;2022-10-31T00:12:42;81.47;;;50.70;;
20880;SDS011;10600;53.096;8.802;2022-10-31T00:13:42;88.93;;;51.47;;
20880;SDS011;10600;53.096;8.802;2022-10-31T00:14:43;81.53;;;48.55;;
20880;SDS011;10600;53.096;8.802;2022-10-31T00:15:43;84.65;;;49.72;;
20880;SDS011;10600;53.096;8.802;2022-10-31T00:16:44;86.30;;;50.72;;
20880;SDS011;10600;53.096;8.802;2022-10-31T00:17:45;83.72;;;50.90;;
20880;SDS011;10600;53.096;8.802;2022-10-31T00:18:52;84.53;;;49.63;;
20880;SDS011;10600;53.096;8.802;2022-10-31T00:19:57;90.00;;;51.00;;
20880;SDS011;10600;53.096;8.802;2022-10-31T00:20:59;89.97;;;51.95;;
20880;SDS011;10600;53.096;8.802;2022-10-31T00:22:02;97.28;;;51.92;;
20880;SDS011;10600;53.096;8.802;2022-10-31T00:23:04;91.80;;;53.50;;
20880;SDS011;10600;53.096;8.802;2022-10-31T00:24:05;94.20;;;53.90;;
20880;SDS011;10600;53.096;8.802;2022-10-31T00:25:06;91.70;;;52.05;;
20880;SDS011;10600;53.096;8.802;2022-10-31T00:26:07;87.90;;;52.03;;
20880;SDS011;10600;53.096;8.802;2022-10-31T00:27:08;90.93;;;52.47;;
20880;SDS011;10600;53.096;8.802;2022-10-31T00:28:09;91.35;;;51.30;;
20880;SDS011;10600;53.096;8.802;2022-10-31T00:29:11;87.18;;;50.17;;
20880;SDS011;10600;53.096;8.802;2022-10-31T00:30:12;94.70;;;55.03;;
20880;SDS011;10600;53.096;8.802;2022-10-31T00:31:13;91.72;;;53.28;;
20880;SDS011;10600;53.096;8.802;2022-10-31T00:32:14;94.50;;;53.83;;
20880;SDS011;10600;53.096;8.802;2022-10-31T00:33:15;91.63;;;54.28;;
20880;SDS011;10600;53.096;8.802;2022-10-31T00:34:15;96.63;;;52.88;;
20880;SDS011;10600;53.096;8.802;2022-10-31T00:35:16;99.85;;;55.47;;
20880;SDS011;10600;53.096;8.802;2022-10-31T00:36:17;92.95;;;53.63;;
20880;SDS011;10600;53.096;8.802;2022-10-31T00:37:19;96.82;;;53.97;;
20880;SDS011;10600;53.096;8.802;2022-10-31T00:38:19;91.03;;;54.03;;
20880;SDS011;10600;53.096;8.802;2022-10-31T00:39:21;96.53;;;54.85;;
20880;SDS011;10600;53.096;8.802;2022-10-31T00:40:21;95.20;;;54.25;;
20880;SDS011;10600;53.096;8.802;2022-10-31T00:41:22;99.70;;;55.63;;
20880;SDS011;10600;53.096;8.802;2022-10-31T00:42:23;105.35;;;55.55;;
20880;SDS011;10600;53.096;8.802;2022-10-31T00:43:23;95.07;;;55.72;;
20880;SDS011;10600;53.096;8.802;2022-10-31T00:44:24;97.65;;;56.35;;
20880;SDS011;10600;53.096;8.802;2022-10-31T00:45:25;97.53;;;55.35;;
20880;SDS011;10600;53.096;8.802;2022-10-31T00:46:25;104.63;;;56.42;;
20880;SDS011;10600;53.096;8.802;2022-10-31T00:47:26;104.60;;;57.53;;
20880;SDS011;10600;53.096;8.802;2022-10-31T00:48:27;105.20;;;57.22;;
20880;SDS011;10600;53.096;8.802;2022-10-31T00:49:27;106.57;;;57.38;;
20880;SDS011;10600;53.096;8.802;2022-10-31T00:50:28;107.95;;;59.70;;
20880;SDS011;10600;53.096;8.802;2022-10-31T00:51:29;102.78;;;58.92;;
20880;SDS011;10600;53.096;8.802;2022-10-31T00:52:29;102.20;;;57.83;;
20880;SDS011;10600;53.096;8.802;2022-10-31T00:53:30;101.82;;;57.05;;
20880;SDS011;10600;53.096;8.802;2022-10-31T00:54:31;115.53;;;58.03;;
20880;SDS011;10600;53.096;8.802;2022-10-31T00:55:31;106.95;;;58.63;;
20880;SDS011;10600;53.096;8.802;2022-10-31T00:56:32;116.10;;;59.83;;
20880;SDS011;10600;53.096;8.802;2022-10-31T00:57:33;103.32;;;58.35;;
20880;SDS011;10600;53.096;8.802;2022-10-31T00:58:34;103.22;;;58.55;;
20880;SDS011;10600;53.096;8.802;2022-10-31T00:59:34;111.05;;;60.08;;
20880;SDS011;10600;53.096;8.802;2022-10-31T01:00:35;107.10;;;58.85;;
20880;SDS011;10600;53.096;8.802;2022-10-31T01:01:35;113.63;;;61.88;;
20880;SDS011;10600;53.096;8.802;2022-10-31T01:02:36;103.30;;;58.38;;
20880;SDS011;10600;53.096;8.802;2022-10-31T01:03:37;109.50;;;59.08;;
20880;SDS011;10600;53.096;8.802;2022-10-31T01:04:38;110.28;;;60.95;;
20880;SDS011;10600;53.096;8.802;2022-10-31T01:05:39;111.57;;;58.60;;
20880;SDS011;10600;53.096;8.802;2022-10-31T01:06:39;104.82;;;60.05;;
20880;SDS011;10600;53.096;8.802;2022-10-31T01:07:40;110.20;;;61.20;;
20880;SDS011;10600;53.096;8.802;2022-10-31T01:08:41;109.30;;;60.05;;
20880;SDS011;10600;53.096;8.802;2022-10-31T01:09:42;110.95;;;61.03;;
20880;SDS011;10600;53.096;8.802;2022-10-31T01:10:43;107.22;;;61.35;;
20880;SDS011;10600;53.096;8.802;2022-10-31T01:11:43;104.03;;;62.00;;
20880;SDS011;10600;53.096;8.802;2022-10-31T01:12:45;120.18;;;60.95;;
20880;SDS011;10600;53.096;8.802;2022-10-31T01:13:49;111.75;;;59.95;;
20880;SDS011;10600;53.096;8.802;2022-10-31T01:14:51;118.20;;;60.92;;
20880;SDS011;10600;53.096;8.802;2022-10-31T01:15:55;122.53;;;64.95;;
20880;SDS011;10600;53.096;8.802;2022-10-31T01:16:56;112.35;;;61.90;;
20880;SDS011;10600;53.096;8.802;2022-10-31T01:17:57;115.57;;;63.92;;
20880;SDS011;10600;53.096;8.802;2022-10-31T01:18:57;112.80;;;61.15;;
20880;SDS011;10600;53.096;8.802;2022-10-31T01:19:58;121.03;;;64.35;;
20880;SDS011;10600;53.096;8.802;2022-10-31T01:20:59;111.80;;;60.78;;
20880;SDS011;10600;53.096;8.802;2022-10-31T01:22:02;122.97;;;63.60;;
20880;SDS011;10600;53.096;8.802;2022-10-31T01:23:02;123.65;;;64.30;;
20880;SDS011;10600;53.096;8.802;2022-10-31T01:24:03;124.65;;;66.65;;
20880;SDS011;10600;53.096;8.802;2022-10-31T01:25:04;126.40;;;65.15;;
20880;SDS011;10600;53.096;8.802;2022-10-31T01:26:10;120.65;;;64.40;;
20880;SDS011;10600;53.096;8.802;2022-10-31T01:27:16;125.18;;;65.00;;
20880;SDS011;10600;53.096;8.802;2022-10-31T01:28:16;126.68;;;67.50;;
20880;SDS011;10600;53.096;8.802;2022-10-31T01:29:17;125.35;;;65.90;;
20880;SDS011;10600;53.096;8.802;2022-10-31T01:30:18;128.82;;;66.20;;
20880;SDS011;10600;53.096;8.802;2022-10-31T01:31:19;130.52;;;66.95;;
20880;SDS011;10600;53.096;8.802;2022-10-31T01:32:22;130.98;;;68.78;;
20880;SDS011;10600;53.096;8.802;2022-10-31T01:33:22;123.05;;;67.15;;
20880;SDS011;10600;53.096;8.802;2022-10-31T01:34:23;136.30;;;66.82;;
20880;SDS011;10600;53.096;8.802;2022-10-31T01:35:24;126.40;;;66.70;;
20880;SDS011;10600;53.096;8.802;2022-10-31T01:36:25;130.50;;;67.28;;
20880;SDS011;10600;53.096;8.802;2022-10-31T01:37:31;127.95;;;64.75;;
20880;SDS011;10600;53.096;8.802;2022-10-31T01:38:31;138.57;;;68.47;;
20880;SDS011;10600;53.096;8.802;2022-10-31T01:39:32;129.60;;;70.05;;
20880;SDS011;10600;53.096;8.802;2022-10-31T01:40:32;127.75;;;67.88;;
20880;SDS011;10600;53.096;8.802;2022-10-31T01:41:35;124.15;;;67.75;;
20880;SDS011;10600;53.096;8.802;2022-10-31T01:42:37;136.82;;;69.63;;
20880;SDS011;10600;53.096;8.802;2022-10-31T01:44:53;132.27;;;66.50;;
20880;SDS011;10600;53.096;8.802;2022-10-31T01:46:01;128.48;;;65.10;;
20880;SDS011;10600;53.096;8.802;2022-10-31T01:47:12;131.75;;;66.07;;
20880;SDS011;10600;53.096;8.802;2022-10-31T01:48:18;129.98;;;67.18;;
20880;SDS011;10600;53.096;8.802;2022-10-31T01:50:45;136.15;;;69.43;;
20880;SDS011;10600;53.096;8.802;2022-10-31T01:51:50;129.80;;;67.00;;
20880;SDS011;10600;53.096;8.802;2022-10-31T01:52:56;134.02;;;69.47;;
20880;SDS011;10600;53.096;8.802;2022-10-31T01:54:01;134.48;;;68.22;;
20880;SDS011;10600;53.096;8.802;2022-10-31T01:56:26;128.85;;;66.57;;
20880;SDS011;10600;53.096;8.802;2022-10-31T01:57:27;138.73;;;68.90;;
20880;SDS011;10600;53.096;8.802;2022-10-31T01:58:31;133.55;;;65.97;;
20880;SDS011;10600;53.096;8.802;2022-10-31T01:59:32;138.40;;;67.75;;
20880;SDS011;10600;53.096;8.802;2022-10-31T02:00:36;133.85;;;66.43;;
20880;SDS011;10600;53.096;8.802;2022-10-31T02:01:38;130.73;;;67.68;;
20880;SDS011;10600;53.096;8.802;2022-10-31T02:02:39;139.68;;;68.82;;
20880;SDS011;10600;53.096;8.802;2022-10-31T02:03:40;135.82;;;67.28;;
20880;SDS011;10600;53.096;8.802;2022-10-31T02:04:41;134.27;;;68.50;;
20880;SDS011;10600;53.096;8.802;2022-10-31T02:05:42;136.05;;;68.55;;
20880;SDS011;10600;53.096;8.802;2022-10-31T02:06:51;134.50;;;67.03;;
20880;SDS011;10600;53.096;8.802;2022-10-31T02:09:19;141.95;;;68.15;;
20880;SDS011;10600;53.096;8.802;2022-10-31T02:10:23;132.30;;;67.80;;
20880;SDS011;10600;53.096;8.802;2022-10-31T02:11:24;137.45;;;71.32;;
20880;SDS011;10600;53.096;8.802;2022-10-31T02:12:27;138.45;;;68.15;;
20880;SDS011;10600;53.096;8.802;2022-10-31T02:13:31;140.48;;;71.30;;
20880;SDS011;10600;53.096;8.802;2022-10-31T02:14:33;147.00;;;71.43;;
20880;SDS011;10600;53.096;8.802;2022-10-31T02:15:36;143.77;;;71.18;;
20880;SDS011;10600;53.096;8.802;2022-10-31T02:16:38;146.07;;;71.50;;
20880;SDS011;10600;53.096;8.802;2022-10-31T02:17:38;140.85;;;73.65;;
20880;SDS011;10600;53.096;8.802;2022-10-31T02:18:39;154.80;;;72.32;;
20880;SDS011;10600;53.096;8.802;2022-10-31T02:21:34;152.98;;;73.10;;
20880;SDS011;10600;53.096;8.802;2022-10-31T02:26:52;150.27;;;71.88;;
20880;SDS011;10600;53.096;8.802;2022-10-31T02:30:20;157.50;;;73.07;;
20880;SDS011;10600;53.096;8.802;2022-10-31T02:31:27;147.45;;;71.07;;
20880;SDS011;10600;53.096;8.802;2022-10-31T02:34:10;153.82;;;73.97;;
20880;SDS011;10600;53.096;8.802;2022-10-31T02:37:04;155.13;;;72.88;;
20880;SDS011;10600;53.096;8.802;2022-10-31T02:38:29;166.18;;;74.93;;
20880;SDS011;10600;53.096;8.802;2022-10-31T02:39:58;159.23;;;74.18;;
20880;SDS011;10600;53.096;8.802;2022-10-31T02:42:16;173.23;;;78.80;;
20880;SDS011;10600;53.096;8.802;2022-10-31T02:43:43;161.45;;;77.03;;
20880;SDS011;10600;53.096;8.802;2022-10-31T02:44:57;168.52;;;79.47;;
20880;SDS011;10600;53.096;8.802;2022-10-31T02:46:19;182.80;;;81.25;;
20880;SDS011;10600;53.096;8.802;2022-10-31T02:47:37;175.80;;;82.55;;
20880;SDS011;10600;53.096;8.802;2022-10-31T02:48:38;175.68;;;81.88;;
20880;SDS011;10600;53.096;8.802;2022-10-31T02:49:45;170.98;;;79.38;;
20880;SDS011;10600;53.096;8.802;2022-10-31T02:51:01;164.10;;;78.13;;
20880;SDS011;10600;53.096;8.802;2022-10-31T02:52:13;173.63;;;80.30;;
20880;SDS011;10600;53.096;8.802;2022-10-31T02:53:16;180.30;;;83.72;;
20880;SDS011;10600;53.096;8.802;2022-10-31T02:54:18;185.75;;;85.32;;
20880;SDS011;10600;53.096;8.802;2022-10-31T02:56:27;177.13;;;82.10;;
20880;SDS011;10600;53.096;8.802;2022-10-31T02:57:29;187.65;;;85.82;;
20880;SDS011;10600;53.096;8.802;2022-10-31T02:58:34;192.40;;;86.82;;
20880;SDS011;10600;53.096;8.802;2022-10-31T02:59:40;187.45;;;86.25;;
20880;SDS011;10600;53.096;8.802;2022-10-31T03:07:21;177.30;;;82.18;;
20880;SDS011;10600;53.096;8.802;2022-10-31T03:10:02;168.25;;;80.28;;
20880;SDS011;10600;53.096;8.802;2022-10-31T03:11:09;185.35;;;85.30;;
20880;SDS011;10600;53.096;8.802;2022-10-31T03:12:22;216.98;;;93.20;;
20880;SDS011;10600;53.096;8.802;2022-10-31T03:17:33;207.43;;;89.47;;
20880;SDS011;10600;53.096;8.802;2022-10-31T03:18:39;209.73;;;91.82;;
20880;SDS011;10600;53.096;8.802;2022-10-31T03:19:43;207.73;;;94.15;;
20880;SDS011;10600;53.096;8.802;2022-10-31T03:20:51;213.90;;;94.05;;
20880;SDS011;10600;53.096;8.802;2022-10-31T03:21:56;202.25;;;91.53;;
20880;SDS011;10600;53.096;8.802;2022-10-31T03:23:07;206.23;;;93.25;;
20880;SDS011;10600;53.096;8.802;2022-10-31T03:24:13;211.30;;;95.93;;
20880;SDS011;10600;53.096;8.802;2022-10-31T03:25:15;208.27;;;95.22;;
20880;SDS011;10600;53.096;8.802;2022-10-31T03:26:18;203.27;;;91.25;;
20880;SDS011;10600;53.096;8.802;2022-10-31T03:27:23;212.25;;;94.50;;
20880;SDS011;10600;53.096;8.802;2022-10-31T03:28:28;217.85;;;96.30;;
20880;SDS011;10600;53.096;8.802;2022-10-31T03:29:34;210.50;;;95.47;;
20880;SDS011;10600;53.096;8.802;2022-10-31T03:30:38;206.32;;;94.60;;
20880;SDS011;10600;53.096;8.802;2022-10-31T03:31:49;207.75;;;96.00;;
20880;SDS011;10600;53.096;8.802;2022-10-31T03:32:54;235.63;;;96.35;;
20880;SDS011;10600;53.096;8.802;2022-10-31T03:33:58;207.43;;;96.57;;
20880;SDS011;10600;53.096;8.802;2022-10-31T03:35:01;192.77;;;91.50;;
20880;SDS011;10600;53.096;8.802;2022-10-31T03:36:04;220.52;;;97.40;;
20880;SDS011;10600;53.096;8.802;2022-10-31T03:37:07;206.98;;;93.45;;
20880;SDS011;10600;53.096;8.802;2022-10-31T03:38:10;223.88;;;98.72;;
20880;SDS011;10600;53.096;8.802;2022-10-31T03:39:13;221.02;;;100.28;;
20880;SDS011;10600;53.096;8.802;2022-10-31T03:40:17;227.90;;;98.32;;
20880;SDS011;10600;53.096;8.802;2022-10-31T03:41:21;218.07;;;99.13;;
20880;SDS011;10600;53.096;8.802;2022-10-31T03:42:27;236.70;;;100.50;;
20880;SDS011;10600;53.096;8.802;2022-10-31T03:43:32;227.13;;;100.35;;
20880;SDS011;10600;53.096;8.802;2022-10-31T03:44:38;227.40;;;101.60;;
20880;SDS011;10600;53.096;8.802;2022-10-31T03:45:47;225.00;;;99.03;;
20880;SDS011;10600;53.096;8.802;2022-10-31T03:46:47;231.70;;;99.65;;
20880;SDS011;10600;53.096;8.802;2022-10-31T03:47:48;212.48;;;95.32;;
20880;SDS011;10600;53.096;8.802;2022-10-31T03:48:50;230.85;;;102.65;;
20880;SDS011;10600;53.096;8.802;2022-10-31T03:49:50;213.25;;;97.35;;
20880;SDS011;10600;53.096;8.802;2022-10-31T03:52:18;218.00;;;99.55;;
20880;SDS011;10600;53.096;8.802;2022-10-31T03:53:26;222.30;;;96.65;;
20880;SDS011;10600;53.096;8.802;2022-10-31T03:54:36;188.05;;;89.10;;
20880;SDS011;10600;53.096;8.802;2022-10-31T03:55:51;234.52;;;99.25;;
20880;SDS011;10600;53.096;8.802;2022-10-31T03:58:24;211.95;;;95.38;;
20880;SDS011;10600;53.096;8.802;2022-10-31T03:59:47;239.18;;;100.90;;
20880;SDS011;10600;53.096;8.802;2022-10-31T04:00:53;227.27;;;99.53;;
20880;SDS011;10600;53.096;8.802;2022-10-31T04:01:58;240.00;;;98.20;;
20880;SDS011;10600;53.096;8.802;2022-10-31T04:03:07;238.90;;;104.53;;
20880;SDS011;10600;53.096;8.802;2022-10-31T04:04:12;252.77;;;104.97;;
20880;SDS011;10600;53.096;8.802;2022-10-31T04:05:14;237.85;;;103.85;;
20880;SDS011;10600;53.096;8.802;2022-10-31T04:06:17;236.35;;;104.63;;
20880;SDS011;10600;53.096;8.802;2022-10-31T04:07:19;237.10;;;103.97;;
20880;SDS011;10600;53.096;8.802;2022-10-31T04:08:23;250.65;;;107.53;;
20880;SDS011;10600;53.096;8.802;2022-10-31T04:09:27;248.38;;;110.25;;
20880;SDS011;10600;53.096;8.802;2022-10-31T04:10:29;254.27;;;109.13;;
20880;SDS011;10600;53.096;8.802;2022-10-31T04:11:32;258.48;;;111.00;;
20880;SDS011;10600;53.096;8.802;2022-10-31T04:12:35;276.60;;;114.10;;
20880;SDS011;10600;53.096;8.802;2022-10-31T04:13:38;267.17;;;110.03;;
20880;SDS011;10600;53.096;8.802;2022-10-31T04:14:40;241.70;;;106.72;;
20880;SDS011;10600;53.096;8.802;2022-10-31T04:15:44;249.48;;;103.82;;
20880;SDS011;10600;53.096;8.802;2022-10-31T04:16:46;227.48;;;103.47;;
20880;SDS011;10600;53.096;8.802;2022-10-31T04:17:47;241.77;;;104.45;;
20880;SDS011;10600;53.096;8.802;2022-10-31T04:18:52;249.02;;;106.28;;
20880;SDS011;10600;53.096;8.802;2022-10-31T04:19:53;248.55;;;106.07;;
20880;SDS011;10600;53.096;8.802;2022-10-31T04:21:04;255.27;;;105.65;;
20880;SDS011;10600;53.096;8.802;2022-10-31T04:22:06;254.23;;;108.03;;
20880;SDS011;10600;53.096;8.802;2022-10-31T04:23:20;251.50;;;106.03;;
20880;SDS011;10600;53.096;8.802;2022-10-31T04:24:24;248.45;;;104.30;;
20880;SDS011;10600;53.096;8.802;2022-10-31T04:25:25;256.88;;;108.28;;
20880;SDS011;10600;53.096;8.802;2022-10-31T04:26:26;235.48;;;102.60;;
20880;SDS011;10600;53.096;8.802;2022-10-31T04:27:27;257.65;;;108.35;;
20880;SDS011;10600;53.096;8.802;2022-10-31T04:28:27;254.25;;;109.43;;
20880;SDS011;10600;53.096;8.802;2022-10-31T04:29:28;270.50;;;110.03;;
20880;SDS011;10600;53.096;8.802;2022-10-31T04:30:28;256.55;;;108.82;;
20880;SDS011;10600;53.096;8.802;2022-10-31T04:31:29;236.13;;;103.80;;
20880;SDS011;10600;53.096;8.802;2022-10-31T04:32:30;266.25;;;111.55;;
20880;SDS011;10600;53.096;8.802;2022-10-31T04:33:30;243.65;;;106.15;;
20880;SDS011;10600;53.096;8.802;2022-10-31T04:34:31;261.50;;;107.40;;
20880;SDS011;10600;53.096;8.802;2022-10-31T04:35:32;263.00;;;110.10;;
20880;SDS011;10600;53.096;8.802;2022-10-31T04:36:32;261.90;;;111.70;;
20880;SDS011;10600;53.096;8.802;2022-10-31T04:37:33;256.60;;;109.05;;
20880;SDS011;10600;53.096;8.802;2022-10-31T04:38:34;260.90;;;110.43;;
20880;SDS011;10600;53.096;8.802;2022-10-31T04:39:34;266.35;;;111.00;;
20880;SDS011;10600;53.096;8.802;2022-10-31T04:40:35;267.85;;;111.40;;
20880;SDS011;10600;53.096;8.802;2022-10-31T04:41:36;285.00;;;113.47;;
20880;SDS011;10600;53.096;8.802;2022-10-31T04:42:36;272.70;;;116.32;;
20880;SDS011;10600;53.096;8.802;2022-10-31T04:43:37;268.80;;;112.10;;
20880;SDS011;10600;53.096;8.802;2022-10-31T04:44:37;282.10;;;115.07;;
20880;SDS011;10600;53.096;8.802;2022-10-31T04:45:38;299.33;;;117.30;;
20880;SDS011;10600;53.096;8.802;2022-10-31T04:46:39;285.65;;;115.78;;
20880;SDS011;10600;53.096;8.802;2022-10-31T04:47:39;337.38;;;124.35;;
20880;SDS011;10600;53.096;8.802;2022-10-31T04:48:40;319.00;;;122.80;;
20880;SDS011;10600;53.096;8.802;2022-10-31T04:49:41;385.63;;;125.95;;
20880;SDS011;10600;53.096;8.802;2022-10-31T04:50:41;418.55;;;134.77;;
20880;SDS011;10600;53.096;8.802;2022-10-31T04:51:42;330.70;;;121.80;;
20880;SDS011;10600;53.096;8.802;2022-10-31T04:52:43;343.60;;;126.47;;
20880;SDS011;10600;53.096;8.802;2022-10-31T04:53:45;354.83;;;126.25;;
20880;SDS011;10600;53.096;8.802;2022-10-31T04:54:45;455.65;;;132.85;;
20880;SDS011;10600;53.096;8.802;2022-10-31T04:55:46;469.38;;;135.27;;
20880;SDS011;10600;53.096;8.802;2022-10-31T04:56:47;404.27;;;130.05;;
20880;SDS011;10600;53.096;8.802;2022-10-31T04:57:48;480.35;;;136.13;;
20880;SDS011;10600;53.096;8.802;2022-10-31T04:58:50;380.83;;;129.35;;
20880;SDS011;10600;53.096;8.802;2022-10-31T04:59:50;358.40;;;124.07;;
20880;SDS011;10600;53.096;8.802;2022-10-31T05:00:52;375.98;;;125.07;;
20880;SDS011;10600;53.096;8.802;2022-10-31T05:01:53;342.85;;;119.90;;
20880;SDS011;10600;53.096;8.802;2022-10-31T05:02:54;404.73;;;126.93;;
20880;SDS011;10600;53.096;8.802;2022-10-31T05:03:57;489.10;;;136.13;;
20880;SDS011;10600;53.096;8.802;2022-10-31T05:04:57;566.13;;;144.80;;
20880;SDS011;10600;53.096;8.802;2022-10-31T05:05:58;394.55;;;126.90;;
20880;SDS011;10600;53.096;8.802;2022-10-31T05:06:59;526.45;;;137.32;;
20880;SDS011;10600;53.096;8.802;2022-10-31T05:08:00;587.03;;;147.40;;
20880;SDS011;10600;53.096;8.802;2022-10-31T05:09:00;572.17;;;140.98;;
20880;SDS011;10600;53.096;8.802;2022-10-31T05:10:01;591.63;;;140.27;;
20880;SDS011;10600;53.096;8.802;2022-10-31T05:11:02;432.52;;;125.57;;
20880;SDS011;10600;53.096;8.802;2022-10-31T05:12:03;502.55;;;134.73;;
20880;SDS011;10600;53.096;8.802;2022-10-31T05:13:04;468.17;;;126.45;;
20880;SDS011;10600;53.096;8.802;2022-10-31T05:14:05;372.83;;;116.30;;
20880;SDS011;10600;53.096;8.802;2022-10-31T05:15:06;530.58;;;137.27;;
20880;SDS011;10600;53.096;8.802;2022-10-31T05:16:07;515.72;;;136.48;;
20880;SDS011;10600;53.096;8.802;2022-10-31T05:17:07;618.88;;;145.95;;
20880;SDS011;10600;53.096;8.802;2022-10-31T05:18:08;400.80;;;121.88;;
20880;SDS011;10600;53.096;8.802;2022-10-31T05:19:08;572.47;;;136.95;;
20880;SDS011;10600;53.096;8.802;2022-10-31T05:20:10;644.45;;;145.50;;
20880;SDS011;10600;53.096;8.802;2022-10-31T05:21:11;486.75;;;128.15;;
20880;SDS011;10600;53.096;8.802;2022-10-31T05:22:12;468.02;;;130.40;;
20880;SDS011;10600;53.096;8.802;2022-10-31T05:23:13;388.95;;;120.15;;
20880;SDS011;10600;53.096;8.802;2022-10-31T05:24:13;533.63;;;135.48;;
20880;SDS011;10600;53.096;8.802;2022-10-31T05:25:14;645.00;;;145.77;;
20880;SDS011;10600;53.096;8.802;2022-10-31T05:26:15;560.85;;;138.95;;
20880;SDS011;10600;53.096;8.802;2022-10-31T05:27:16;445.85;;;127.35;;
20880;SDS011;10600;53.096;8.802;2022-10-31T05:28:17;398.45;;;119.55;;
20880;SDS011;10600;53.096;8.802;2022-10-31T05:29:17;483.40;;;130.68;;
20880;SDS011;10600;53.096;8.802;2022-10-31T05:30:22;463.70;;;128.57;;
20880;SDS011;10600;53.096;8.802;2022-10-31T05:31:24;613.00;;;141.65;;
20880;SDS011;10600;53.096;8.802;2022-10-31T05:32:25;551.97;;;137.23;;
20880;SDS011;10600;53.096;8.802;2022-10-31T05:33:26;520.08;;;129.85;;
20880;SDS011;10600;53.096;8.802;2022-10-31T05:34:26;770.17;;;162.38;;
20880;SDS011;10600;53.096;8.802;2022-10-31T05:35:29;728.97;;;158.13;;
20880;SDS011;10600;53.096;8.802;2022-10-31T05:36:31;301.73;;;107.95;;
20880;SDS011;10600;53.096;8.802;2022-10-31T05:37:31;386.02;;;119.03;;
20880;SDS011;10600;53.096;8.802;2022-10-31T05:38:32;566.15;;;134.45;;
20880;SDS011;10600;53.096;8.802;2022-10-31T05:39:33;625.50;;;148.13;;
20880;SDS011;10600;53.096;8.802;2022-10-31T05:40:33;767.85;;;164.15;;
20880;SDS011;10600;53.096;8.802;2022-10-31T05:41:34;581.53;;;145.02;;
20880;SDS011;10600;53.096;8.802;2022-10-31T05:42:35;1061.53;;;202.43;;
20880;SDS011;10600;53.096;8.802;2022-10-31T05:43:36;523.88;;;135.75;;
20880;SDS011;10600;53.096;8.802;2022-10-31T05:44:37;310.33;;;116.95;;
20880;SDS011;10600;53.096;8.802;2022-10-31T05:45:37;733.47;;;163.70;;
20880;SDS011;10600;53.096;8.802;2022-10-31T05:46:38;724.83;;;157.32;;
20880;SDS011;10600;53.096;8.802;2022-10-31T05:47:38;701.13;;;155.73;;
20880;SDS011;10600;53.096;8.802;2022-10-31T05:48:39;613.08;;;146.40;;
20880;SDS011;10600;53.096;8.802;2022-10-31T05:49:40;540.08;;;134.35;;
20880;SDS011;10600;53.096;8.802;2022-10-31T05:50:40;504.60;;;136.85;;
20880;SDS011;10600;53.096;8.802;2022-10-31T05:51:41;575.97;;;142.48;;
20880;SDS011;10600;53.096;8.802;2022-10-31T05:52:42;456.52;;;127.70;;
20880;SDS011;10600;53.096;8.802;2022-10-31T05:53:42;617.47;;;149.48;;
20880;SDS011;10600;53.096;8.802;2022-10-31T05:54:43;539.92;;;137.05;;
20880;SDS011;10600;53.096;8.802;2022-10-31T05:55:44;341.85;;;114.88;;
20880;SDS011;10600;53.096;8.802;2022-10-31T05:56:44;404.02;;;123.35;;
20880;SDS011;10600;53.096;8.802;2022-10-31T05:57:45;303.60;;;114.03;;
20880;SDS011;10600;53.096;8.802;2022-10-31T05:58:46;330.10;;;117.43;;
20880;SDS011;10600;53.096;8.802;2022-10-31T05:59:46;523.88;;;138.98;;
20880;SDS011;10600;53.096;8.802;2022-10-31T06:00:47;512.92;;;136.20;;
20880;SDS011;10600;53.096;8.802;2022-10-31T06:01:48;584.38;;;143.95;;
20880;SDS011;10600;53.096;8.802;2022-10-31T06:02:48;481.10;;;135.68;;
20880;SDS011;10600;53.096;8.802;2022-10-31T06:03:49;539.17;;;140.27;;
20880;SDS011;10600;53.096;8.802;2022-10-31T06:04:49;367.45;;;125.03;;
20880;SDS011;10600;53.096;8.802;2022-10-31T06:05:50;360.30;;;126.00;;
20880;SDS011;10600;53.096;8.802;2022-10-31T06:06:51;453.98;;;134.57;;
20880;SDS011;10600;53.096;8.802;2022-10-31T06:07:51;360.05;;;124.65;;
20880;SDS011;10600;53.096;8.802;2022-10-31T06:08:52;377.88;;;127.32;;
20880;SDS011;10600;53.096;8.802;2022-10-31T06:09:53;367.70;;;125.53;;
20880;SDS011;10600;53.096;8.802;2022-10-31T06:10:53;346.08;;;123.28;;
20880;SDS011;10600;53.096;8.802;2022-10-31T06:11:54;332.08;;;120.63;;
20880;SDS011;10600;53.096;8.802;2022-10-31T06:12:55;313.00;;;120.07;;
20880;SDS011;10600;53.096;8.802;2022-10-31T06:13:56;297.15;;;116.90;;
20880;SDS011;10600;53.096;8.802;2022-10-31T06:14:57;278.50;;;113.50;;
20880;SDS011;10600;53.096;8.802;2022-10-31T06:15:57;252.25;;;107.82;;
20880;SDS011;10600;53.096;8.802;2022-10-31T06:16:58;288.42;;;114.28;;
20880;SDS011;10600;53.096;8.802;2022-10-31T06:17:59;273.60;;;112.40;;
20880;SDS011;10600;53.096;8.802;2022-10-31T06:19:01;266.35;;;112.38;;
20880;SDS011;10600;53.096;8.802;2022-10-31T06:20:02;277.20;;;110.40;;
20880;SDS011;10600;53.096;8.802;2022-10-31T06:21:04;349.65;;;120.75;;
20880;SDS011;10600;53.096;8.802;2022-10-31T06:22:04;319.23;;;118.30;;
20880;SDS011;10600;53.096;8.802;2022-10-31T06:23:06;290.83;;;114.32;;
20880;SDS011;10600;53.096;8.802;2022-10-31T06:24:06;317.80;;;118.95;;
20880;SDS011;10600;53.096;8.802;2022-10-31T06:25:07;431.42;;;132.88;;
20880;SDS011;10600;53.096;8.802;2022-10-31T06:26:08;322.52;;;119.25;;
20880;SDS011;10600;53.096;8.802;2022-10-31T06:27:09;274.40;;;109.50;;
20880;SDS011;10600;53.096;8.802;2022-10-31T06:28:09;350.50;;;123.32;;
20880;SDS011;10600;53.096;8.802;2022-10-31T06:29:10;439.40;;;131.57;;
20880;SDS011;10600;53.096;8.802;2022-10-31T06:30:10;454.60;;;132.82;;
20880;SDS011;10600;53.096;8.802;2022-10-31T06:31:11;374.23;;;124.38;;
20880;SDS011;10600;53.096;8.802;2022-10-31T06:32:12;376.48;;;126.10;;
20880;SDS011;10600;53.096;8.802;2022-10-31T06:33:13;414.75;;;130.45;;
20880;SDS011;10600;53.096;8.802;2022-10-31T06:34:14;402.17;;;130.07;;